Time;durP1;ratioP1;P1;durP2;ratioP2;P2;SDS_P1;SDS_P2;PMS_P1;PMS_P2;Temp;Humidity;BMP_temperature;BMP_pressure;BME280_temperature;BME280_humidity;BME280_pressure;Samples;Min_cycle;Max_cycle;Signal;HPM_P1;HPM_P2
2021/12/09 00:00:17;;;;;;;13.60;5.97;;;;;;;;;;5046932;28;20181;-77
2021/12/09 00:02:43;;;;;;;12.73;6.60;;;;;;;;;;5057230;28;21292;-77
2021/12/09 00:05:10;;;;;;;9.97;5.83;;;;;;;;;;5046430;28;20319;-77
2021/12/09 00:07:35;;;;;;;11.70;5.87;;;;;;;;;;5049518;28;20213;-77
2021/12/09 00:10:02;;;;;;;9.30;6.23;;;;;;;;;;5053161;28;20205;-77
2021/12/09 00:12:28;;;;;;;10.97;6.10;;;;;;;;;;5052730;28;20283;-75
2021/12/09 00:14:53;;;;;;;10.67;6.37;;;;;;;;;;5050977;28;20662;-76
2021/12/09 00:17:18;;;;;;;9.23;5.73;;;;;;;;;;5053154;28;20177;-76
2021/12/09 00:19:43;;;;;;;7.47;5.90;;;;;;;;;;5057054;28;20201;-76
2021/12/09 00:22:11;;;;;;;11.10;6.50;;;;;;;;;;5051521;28;20709;-77
2021/12/09 00:24:36;;;;;;;9.03;7.23;;;;;;;;;;5048120;28;20563;-78
2021/12/09 00:27:02;;;;;;;12.43;6.50;;;;;;;;;;5050588;28;20209;-76
2021/12/09 00:29:27;;;;;;;11.00;6.87;;;;;;;;;;5050582;28;20283;-77
2021/12/09 00:31:52;;;;;;;12.17;7.17;;;;;;;;;;5057523;28;20181;-76
2021/12/09 00:34:29;;;;;;;8.57;6.33;;;;;;;;;;5050007;28;20706;-77
2021/12/09 00:37:01;;;;;;;7.87;5.50;;;;;;;;;;5050873;28;20181;-78
2021/12/09 00:39:27;;;;;;;10.57;6.57;;;;;;;;;;5052718;28;20215;-77
2021/12/09 00:41:52;;;;;;;10.60;6.90;;;;;;;;;;5064354;28;20177;-76
2021/12/09 00:44:17;;;;;;;11.47;7.00;;;;;;;;;;5044623;28;20192;-77
2021/12/09 00:46:42;;;;;;;12.03;6.13;;;;;;;;;;5051568;28;20243;-75
2021/12/09 00:49:08;;;;;;;14.97;7.00;;;;;;;;;;5053514;28;20190;-75
2021/12/09 00:51:33;;;;;;;9.53;6.33;;;;;;;;;;5045262;28;20639;-75
2021/12/09 00:53:59;;;;;;;9.97;6.47;;;;;;;;;;5041670;28;20655;-76
2021/12/09 00:56:24;;;;;;;13.60;7.40;;;;;;;;;;5055635;28;20339;-76
2021/12/09 00:58:50;;;;;;;11.43;6.87;;;;;;;;;;5048403;28;20323;-77
2021/12/09 01:01:16;;;;;;;11.80;6.80;;;;;;;;;;5050967;28;20181;-77
2021/12/09 01:03:42;;;;;;;12.27;6.90;;;;;;;;;;5057083;28;20185;-76
2021/12/09 01:06:07;;;;;;;9.67;6.77;;;;;;;;;;5046414;28;20194;-77
2021/12/09 01:08:33;;;;;;;13.20;7.17;;;;;;;;;;5057726;28;20339;-77
2021/12/09 01:10:58;;;;;;;11.27;5.90;;;;;;;;;;5048478;28;20178;-77
2021/12/09 01:13:23;;;;;;;11.40;7.33;;;;;;;;;;5050690;28;20662;-77
2021/12/09 01:15:48;;;;;;;8.73;6.53;;;;;;;;;;5051745;28;20263;-77
2021/12/09 01:18:14;;;;;;;10.20;6.93;;;;;;;;;;5057203;28;20485;-77
2021/12/09 01:20:39;;;;;;;12.67;6.33;;;;;;;;;;5046631;28;20181;-76
2021/12/09 01:23:04;;;;;;;9.23;6.50;;;;;;;;;;5055190;28;20701;-76
2021/12/09 01:25:37;;;;;;;12.10;6.90;;;;;;;;;;5047825;28;20185;-76
2021/12/09 01:28:03;;;;;;;15.90;6.70;;;;;;;;;;5047165;28;20213;-77
2021/12/09 01:30:29;;;;;;;11.07;6.37;;;;;;;;;;5062386;28;20176;-77
2021/12/09 01:32:55;;;;;;;10.80;6.57;;;;;;;;;;5045960;28;20173;-77
2021/12/09 01:35:26;;;;;;;9.00;6.57;;;;;;;;;;5052119;28;20548;-76
2021/12/09 01:37:55;;;;;;;8.40;6.03;;;;;;;;;;5059550;28;20235;-76
2021/12/09 01:40:21;;;;;;;12.30;6.30;;;;;;;;;;5056932;28;20658;-77
2021/12/09 01:42:46;;;;;;;11.00;7.03;;;;;;;;;;5053787;28;20185;-76
2021/12/09 01:45:11;;;;;;;10.50;5.53;;;;;;;;;;5054513;28;20335;-76
2021/12/09 01:47:37;;;;;;;9.37;5.67;;;;;;;;;;5051989;28;20279;-76
2021/12/09 01:50:03;;;;;;;14.13;8.17;;;;;;;;;;5053691;28;20209;-76
2021/12/09 01:52:28;;;;;;;8.17;6.17;;;;;;;;;;5052105;28;20178;-76
2021/12/09 01:54:53;;;;;;;9.60;6.23;;;;;;;;;;5051206;28;20178;-77
2021/12/09 01:57:18;;;;;;;11.00;5.60;;;;;;;;;;5052674;28;20222;-76
2021/12/09 01:59:44;;;;;;;12.10;6.30;;;;;;;;;;5049946;28;20584;-78
2021/12/09 02:02:09;;;;;;;11.30;6.80;;;;;;;;;;5058455;28;20174;-77
2021/12/09 02:04:34;;;;;;;9.93;6.30;;;;;;;;;;5059463;28;20188;-77
2021/12/09 02:06:59;;;;;;;9.30;6.17;;;;;;;;;;5058232;28;20243;-75
2021/12/09 02:09:24;;;;;;;9.93;6.17;;;;;;;;;;5059257;28;20204;-78
2021/12/09 02:11:50;;;;;;;12.53;6.23;;;;;;;;;;5053506;28;20181;-76
2021/12/09 02:14:15;;;;;;;11.83;6.13;;;;;;;;;;5050611;28;20170;-76
2021/12/09 02:16:40;;;;;;;7.40;5.23;;;;;;;;;;5054223;28;20339;-75
2021/12/09 02:19:06;;;;;;;12.87;5.67;;;;;;;;;;5050408;28;20214;-76
2021/12/09 02:21:32;;;;;;;11.57;6.07;;;;;;;;;;5061889;28;20184;-77
2021/12/09 02:24:00;;;;;;;10.47;5.73;;;;;;;;;;5058332;28;20256;-77
2021/12/09 02:26:29;;;;;;;10.27;6.40;;;;;;;;;;5044236;28;20255;-75
2021/12/09 02:28:56;;;;;;;11.10;5.70;;;;;;;;;;5051136;28;20240;-74
2021/12/09 02:31:22;;;;;;;8.83;5.90;;;;;;;;;;5051963;28;20257;-74
2021/12/09 02:33:48;;;;;;;12.23;5.93;;;;;;;;;;5054623;28;20700;-75
2021/12/09 02:36:13;;;;;;;9.63;5.60;;;;;;;;;;5066349;28;20388;-75
2021/12/09 02:38:43;;;;;;;7.60;5.57;;;;;;;;;;5061878;28;20201;-75
2021/12/09 02:41:14;;;;;;;11.57;5.97;;;;;;;;;;5048546;28;20209;-76
2021/12/09 02:43:40;;;;;;;11.67;5.80;;;;;;;;;;5053017;28;20227;-75
2021/12/09 02:46:05;;;;;;;9.90;6.20;;;;;;;;;;5054706;28;20197;-75
2021/12/09 02:48:30;;;;;;;12.47;6.37;;;;;;;;;;5054731;28;20198;-75
2021/12/09 02:50:55;;;;;;;7.13;5.00;;;;;;;;;;5059526;28;20170;-75
2021/12/09 02:53:21;;;;;;;9.33;5.70;;;;;;;;;;5046100;28;20267;-75
2021/12/09 02:55:46;;;;;;;11.67;5.50;;;;;;;;;;5041762;28;20181;-75
2021/12/09 02:58:12;;;;;;;10.97;5.60;;;;;;;;;;5051491;28;20288;-75
2021/12/09 03:00:56;;;;;;;13.40;6.13;;;;;;;;;;5057072;28;20187;-75
2021/12/09 03:03:21;;;;;;;9.97;6.23;;;;;;;;;;5045405;28;20399;-75
2021/12/09 03:05:47;;;;;;;12.17;6.07;;;;;;;;;;5055898;28;20266;-75
2021/12/09 03:08:18;;;;;;;12.10;6.13;;;;;;;;;;5059899;28;20197;-74
2021/12/09 03:10:43;;;;;;;10.13;5.63;;;;;;;;;;5050866;28;20562;-76
2021/12/09 03:13:10;;;;;;;10.73;5.57;;;;;;;;;;5055545;28;20189;-75
2021/12/09 03:15:35;;;;;;;11.93;5.73;;;;;;;;;;5050208;28;20197;-75
2021/12/09 03:18:01;;;;;;;11.87;5.60;;;;;;;;;;5052032;28;20240;-75
2021/12/09 03:20:26;;;;;;;11.10;5.47;;;;;;;;;;5055686;28;20201;-76
2021/12/09 03:22:51;;;;;;;12.50;5.90;;;;;;;;;;5057916;28;20193;-75
2021/12/09 03:25:18;;;;;;;14.87;6.80;;;;;;;;;;5063233;28;20174;-75
2021/12/09 03:27:43;;;;;;;11.13;5.70;;;;;;;;;;5049591;28;20585;-76
2021/12/09 03:30:10;;;;;;;9.97;5.93;;;;;;;;;;5050769;28;20177;-75
2021/12/09 03:32:36;;;;;;;19.57;6.07;;;;;;;;;;5056013;28;20252;-76
2021/12/09 03:35:01;;;;;;;10.37;5.70;;;;;;;;;;5047503;28;20268;-75
2021/12/09 03:37:30;;;;;;;13.50;6.63;;;;;;;;;;5044436;28;20277;-75
2021/12/09 03:39:56;;;;;;;10.57;6.20;;;;;;;;;;5047815;28;20828;-75
2021/12/09 03:42:23;;;;;;;9.57;5.33;;;;;;;;;;5051662;28;20235;-75
2021/12/09 03:44:49;;;;;;;11.67;5.83;;;;;;;;;;5051065;28;20181;-75
2021/12/09 03:47:15;;;;;;;12.67;6.97;;;;;;;;;;5050634;28;20228;-76
2021/12/09 03:49:42;;;;;;;11.07;5.87;;;;;;;;;;5051943;28;20691;-75
2021/12/09 03:52:07;;;;;;;10.93;5.40;;;;;;;;;;5053569;28;20209;-75
2021/12/09 03:54:33;;;;;;;12.00;5.13;;;;;;;;;;5049984;28;20173;-75
2021/12/09 03:56:58;;;;;;;12.47;5.07;;;;;;;;;;5052389;28;20520;-75
2021/12/09 03:59:23;;;;;;;10.20;5.60;;;;;;;;;;5051883;28;20620;-75
2021/12/09 04:01:49;;;;;;;10.17;5.77;;;;;;;;;;5047849;28;20185;-75
2021/12/09 04:04:15;;;;;;;11.13;5.10;;;;;;;;;;5047984;28;20663;-75
2021/12/09 04:06:40;;;;;;;16.47;5.83;;;;;;;;;;5050136;28;20213;-75
2021/12/09 04:09:07;;;;;;;12.43;5.50;;;;;;;;;;5046795;28;20202;-75
2021/12/09 04:11:33;;;;;;;9.33;4.87;;;;;;;;;;5045723;28;20236;-75
2021/12/09 04:13:58;;;;;;;12.93;5.40;;;;;;;;;;5046078;28;20575;-76
2021/12/09 04:16:23;;;;;;;13.27;5.37;;;;;;;;;;5044770;28;20679;-75
2021/12/09 04:18:48;;;;;;;10.97;4.90;;;;;;;;;;5047451;28;20209;-75
2021/12/09 04:21:14;;;;;;;10.63;5.17;;;;;;;;;;5053580;28;20330;-75
2021/12/09 04:23:39;;;;;;;9.53;5.87;;;;;;;;;;5065027;28;20176;-75
2021/12/09 04:26:05;;;;;;;12.53;5.77;;;;;;;;;;5062123;28;20223;-74
2021/12/09 04:28:30;;;;;;;16.20;5.27;;;;;;;;;;5044205;28;20205;-75
2021/12/09 04:30:56;;;;;;;10.93;5.13;;;;;;;;;;5045872;28;20309;-75
2021/12/09 04:33:21;;;;;;;15.93;5.50;;;;;;;;;;5048152;28;20187;-75
2021/12/09 04:35:46;;;;;;;12.00;5.20;;;;;;;;;;5045632;28;20182;-75
2021/12/09 04:38:12;;;;;;;17.00;6.43;;;;;;;;;;5053020;28;20208;-75
2021/12/09 04:40:37;;;;;;;11.33;5.13;;;;;;;;;;5053657;28;20197;-75
2021/12/09 04:43:02;;;;;;;9.83;4.80;;;;;;;;;;5050692;28;20181;-75
2021/12/09 04:45:28;;;;;;;12.63;5.57;;;;;;;;;;5061634;28;20205;-75
2021/12/09 04:47:53;;;;;;;7.33;4.87;;;;;;;;;;5049445;28;20173;-75
2021/12/09 04:50:18;;;;;;;9.87;5.53;;;;;;;;;;5049318;28;20181;-75
2021/12/09 04:52:44;;;;;;;12.20;5.47;;;;;;;;;;5056015;28;20178;-74
2021/12/09 04:55:09;;;;;;;12.63;4.50;;;;;;;;;;5058871;28;20478;-75
2021/12/09 04:57:34;;;;;;;7.27;4.90;;;;;;;;;;5049218;28;20185;-75
2021/12/09 05:00:00;;;;;;;18.87;6.50;;;;;;;;;;5049567;28;20683;-75
2021/12/09 05:02:42;;;;;;;11.37;4.17;;;;;;;;;;5045172;28;20184;-74
2021/12/09 05:05:09;;;;;;;11.77;4.43;;;;;;;;;;5046759;28;20173;-75
2021/12/09 05:07:34;;;;;;;10.73;4.83;;;;;;;;;;5060632;28;20324;-75
2021/12/09 05:09:59;;;;;;;9.50;5.30;;;;;;;;;;5051475;28;20222;-74
2021/12/09 05:12:24;;;;;;;9.20;4.43;;;;;;;;;;5056892;28;20178;-75
2021/12/09 05:14:50;;;;;;;11.13;4.80;;;;;;;;;;5055732;28;20180;-75
2021/12/09 05:17:16;;;;;;;11.70;5.17;;;;;;;;;;5053439;28;20619;-75
2021/12/09 05:19:42;;;;;;;12.77;4.23;;;;;;;;;;5059759;28;20232;-75
2021/12/09 05:22:07;;;;;;;9.83;5.30;;;;;;;;;;5063461;28;20227;-75
2021/12/09 05:24:34;;;;;;;9.63;4.50;;;;;;;;;;5054365;28;20176;-74
2021/12/09 05:26:59;;;;;;;8.93;4.37;;;;;;;;;;5059810;28;20209;-75
2021/12/09 05:29:30;;;;;;;10.53;4.67;;;;;;;;;;5049934;28;20227;-75
2021/12/09 05:32:11;;;;;;;7.63;4.10;;;;;;;;;;5050039;28;20189;-75
2021/12/09 05:34:41;;;;;;;9.57;3.90;;;;;;;;;;5048129;28;20203;-75
2021/12/09 05:37:07;;;;;;;9.27;4.57;;;;;;;;;;5064227;28;20189;-76
2021/12/09 05:39:33;;;;;;;9.83;4.30;;;;;;;;;;5049384;28;20623;-74
2021/12/09 05:41:59;;;;;;;12.63;4.53;;;;;;;;;;5061541;28;20186;-74
2021/12/09 05:44:24;;;;;;;7.97;4.40;;;;;;;;;;5056211;28;20184;-74
2021/12/09 05:46:49;;;;;;;15.70;4.63;;;;;;;;;;5049723;28;20246;-74
2021/12/09 05:49:15;;;;;;;9.43;4.20;;;;;;;;;;5048593;28;20296;-74
2021/12/09 05:51:41;;;;;;;12.10;4.23;;;;;;;;;;5057300;28;20265;-74
2021/12/09 05:54:06;;;;;;;7.73;4.27;;;;;;;;;;5043658;28;20173;-74
2021/12/09 05:56:32;;;;;;;27.73;4.60;;;;;;;;;;5046834;28;20192;-74
2021/12/09 05:58:57;;;;;;;9.43;4.50;;;;;;;;;;5049572;28;20263;-74
2021/12/09 06:01:23;;;;;;;10.13;4.67;;;;;;;;;;5048107;28;20182;-76
2021/12/09 06:03:48;;;;;;;13.27;4.30;;;;;;;;;;5054442;28;20196;-74
2021/12/09 06:06:14;;;;;;;10.67;4.60;;;;;;;;;;5049860;28;20691;-75
2021/12/09 06:08:40;;;;;;;9.50;4.97;;;;;;;;;;5058356;28;20743;-75
2021/12/09 06:11:06;;;;;;;12.97;4.43;;;;;;;;;;5049886;28;20173;-75
2021/12/09 06:13:33;;;;;;;10.77;4.20;;;;;;;;;;5049346;28;20193;-74
2021/12/09 06:15:58;;;;;;;9.73;4.13;;;;;;;;;;5049832;28;20267;-75
2021/12/09 06:18:24;;;;;;;8.37;4.33;;;;;;;;;;5048521;28;20232;-75
2021/12/09 06:20:49;;;;;;;7.87;4.13;;;;;;;;;;5061111;28;20473;-75
2021/12/09 06:23:14;;;;;;;13.30;4.57;;;;;;;;;;5052541;28;20631;-75
2021/12/09 06:25:40;;;;;;;13.43;5.43;;;;;;;;;;5053332;28;20185;-75
2021/12/09 06:28:05;;;;;;;16.60;5.27;;;;;;;;;;5051529;28;20750;-74
2021/12/09 06:30:30;;;;;;;8.47;4.10;;;;;;;;;;5059686;28;20173;-75
2021/12/09 06:32:55;;;;;;;10.17;4.23;;;;;;;;;;5056540;28;20177;-74
2021/12/09 06:35:21;;;;;;;7.30;3.90;;;;;;;;;;5056756;28;20209;-75
2021/12/09 06:37:48;;;;;;;9.30;4.27;;;;;;;;;;5058685;28;20659;-75
2021/12/09 06:40:15;;;;;;;8.40;3.80;;;;;;;;;;5051627;28;20189;-75
2021/12/09 06:42:41;;;;;;;7.60;4.03;;;;;;;;;;5052002;28;20251;-75
2021/12/09 06:45:06;;;;;;;14.40;4.73;;;;;;;;;;5051769;28;20182;-74
2021/12/09 06:47:32;;;;;;;12.10;4.17;;;;;;;;;;5050780;28;20205;-74
2021/12/09 06:49:57;;;;;;;9.23;4.53;;;;;;;;;;5057657;28;20201;-75
2021/12/09 06:52:22;;;;;;;12.17;5.57;;;;;;;;;;5055438;28;20201;-75
2021/12/09 06:54:47;;;;;;;14.00;4.33;;;;;;;;;;5059047;28;20289;-75
2021/12/09 06:57:12;;;;;;;14.70;5.47;;;;;;;;;;5053691;28;20176;-74
2021/12/09 06:59:38;;;;;;;12.27;4.43;;;;;;;;;;5057632;28;20212;-74
2021/12/09 07:02:03;;;;;;;10.90;4.73;;;;;;;;;;5046040;28;20257;-76
2021/12/09 07:04:28;;;;;;;11.13;4.73;;;;;;;;;;5058373;28;20181;-75
2021/12/09 07:06:53;;;;;;;12.67;5.03;;;;;;;;;;5051555;28;20599;-73
2021/12/09 07:09:19;;;;;;;8.10;4.47;;;;;;;;;;5061003;28;20190;-74
2021/12/09 07:11:50;;;;;;;9.70;4.93;;;;;;;;;;5055032;28;20201;-74
2021/12/09 07:14:15;;;;;;;11.27;4.93;;;;;;;;;;5060660;28;20192;-75
2021/12/09 07:16:40;;;;;;;11.17;4.87;;;;;;;;;;5052370;28;20576;-74
2021/12/09 07:19:05;;;;;;;12.73;4.97;;;;;;;;;;5052961;28;20602;-75
2021/12/09 07:21:30;;;;;;;7.90;4.73;;;;;;;;;;5050088;28;20582;-74
2021/12/09 07:23:56;;;;;;;8.13;5.00;;;;;;;;;;5050427;28;20190;-74
2021/12/09 07:26:21;;;;;;;13.00;5.50;;;;;;;;;;5055728;28;20251;-74
2021/12/09 07:28:46;;;;;;;10.23;5.00;;;;;;;;;;5057939;28;20210;-75
2021/12/09 07:31:11;;;;;;;10.57;4.43;;;;;;;;;;5052140;28;20216;-75
2021/12/09 07:33:37;;;;;;;10.73;5.57;;;;;;;;;;5055857;28;20185;-75
2021/12/09 07:36:04;;;;;;;15.70;4.93;;;;;;;;;;5059060;28;20235;-75
2021/12/09 07:38:29;;;;;;;10.10;4.47;;;;;;;;;;5064330;28;20203;-74
2021/12/09 07:40:54;;;;;;;13.67;4.70;;;;;;;;;;5062618;28;20185;-75
2021/12/09 07:43:19;;;;;;;10.20;4.97;;;;;;;;;;5060644;28;20178;-74
2021/12/09 07:45:45;;;;;;;14.87;5.80;;;;;;;;;;5055115;28;20346;-75
2021/12/09 07:48:10;;;;;;;10.70;5.53;;;;;;;;;;5056135;28;20631;-75
2021/12/09 07:50:35;;;;;;;15.13;5.60;;;;;;;;;;5047773;28;20200;-75
2021/12/09 07:53:01;;;;;;;9.53;5.50;;;;;;;;;;5060927;28;20177;-74
2021/12/09 07:55:26;;;;;;;15.93;5.90;;;;;;;;;;5062806;28;20209;-75
2021/12/09 07:57:52;;;;;;;13.20;5.23;;;;;;;;;;5057602;28;20670;-75
2021/12/09 08:00:20;;;;;;;13.00;5.53;;;;;;;;;;5050034;28;20186;-74
2021/12/09 08:02:46;;;;;;;11.73;5.43;;;;;;;;;;5058594;28;20239;-75
2021/12/09 08:05:12;;;;;;;12.57;5.50;;;;;;;;;;5051795;28;20485;-75
2021/12/09 08:07:41;;;;;;;14.93;5.50;;;;;;;;;;5060417;28;20690;-74
2021/12/09 08:10:06;;;;;;;8.57;5.27;;;;;;;;;;5053904;28;20319;-75
2021/12/09 08:12:32;;;;;;;11.87;5.10;;;;;;;;;;5051315;28;20221;-75
2021/12/09 08:14:57;;;;;;;9.00;4.83;;;;;;;;;;5058053;28;20682;-76
2021/12/09 08:20:06;;;;;;;10.07;5.30;;;;;;;;;;5051377;28;20270;-75
2021/12/09 08:22:32;;;;;;;14.90;5.77;;;;;;;;;;5049745;28;20196;-74
2021/12/09 08:24:58;;;;;;;10.63;5.53;;;;;;;;;;5053515;28;20188;-73
2021/12/09 08:27:24;;;;;;;14.83;5.73;;;;;;;;;;5052797;28;20205;-75
2021/12/09 08:29:49;;;;;;;12.40;7.07;;;;;;;;;;5076525;22;20239;-72
2021/12/09 08:32:14;;;;;;;10.07;5.50;;;;;;;;;;5065039;28;20647;-71
2021/12/09 08:34:39;;;;;;;14.13;6.40;;;;;;;;;;5063336;28;20260;-72
2021/12/09 08:37:05;;;;;;;11.50;5.90;;;;;;;;;;5069131;28;20180;-71
2021/12/09 08:39:30;;;;;;;9.97;6.13;;;;;;;;;;5068995;28;20207;-72
2021/12/09 08:41:55;;;;;;;14.20;6.97;;;;;;;;;;5069045;28;20627;-71
2021/12/09 08:44:20;;;;;;;9.67;6.27;;;;;;;;;;5070875;28;20176;-71
2021/12/09 08:46:46;;;;;;;12.13;6.23;;;;;;;;;;5066452;28;20647;-72
2021/12/09 08:49:11;;;;;;;13.50;6.10;;;;;;;;;;5064683;28;20203;-71
2021/12/09 08:51:37;;;;;;;14.47;6.70;;;;;;;;;;5068356;28;20177;-71
2021/12/09 08:54:04;;;;;;;15.90;6.63;;;;;;;;;;5051316;28;20547;-71
2021/12/09 08:56:29;;;;;;;9.93;6.80;;;;;;;;;;5070597;28;20177;-72
2021/12/09 08:58:54;;;;;;;12.20;7.30;;;;;;;;;;5072756;28;20188;-71
2021/12/09 09:01:20;;;;;;;15.37;7.63;;;;;;;;;;5071670;28;20181;-71
2021/12/09 09:03:45;;;;;;;17.97;7.23;;;;;;;;;;5061608;28;20191;-71
2021/12/09 09:06:10;;;;;;;22.47;8.67;;;;;;;;;;5069783;28;20200;-72
2021/12/09 09:08:35;;;;;;;13.37;8.00;;;;;;;;;;5062326;28;20250;-70
2021/12/09 09:11:01;;;;;;;14.40;7.30;;;;;;;;;;5070174;28;20191;-71
2021/12/09 09:13:26;;;;;;;10.57;6.83;;;;;;;;;;5060011;28;20170;-72
2021/12/09 09:15:52;;;;;;;17.27;8.70;;;;;;;;;;5068563;28;20181;-74
2021/12/09 09:18:18;;;;;;;13.83;8.47;;;;;;;;;;5069500;28;20216;-71
2021/12/09 09:20:43;;;;;;;14.93;8.97;;;;;;;;;;5067812;28;20182;-72
2021/12/09 09:23:10;;;;;;;13.40;8.43;;;;;;;;;;5062530;28;20176;-72
2021/12/09 09:25:35;;;;;;;12.40;7.93;;;;;;;;;;5062692;28;20172;-72
2021/12/09 09:28:00;;;;;;;14.00;7.20;;;;;;;;;;5053075;28;20212;-71
2021/12/09 09:30:33;;;;;;;22.57;8.37;;;;;;;;;;5067046;28;20213;-72
2021/12/09 09:32:59;;;;;;;14.17;8.50;;;;;;;;;;5072152;28;20654;-71
2021/12/09 09:35:24;;;;;;;12.70;6.93;;;;;;;;;;5067354;28;20295;-72
2021/12/09 09:37:49;;;;;;;14.40;7.83;;;;;;;;;;5050984;28;20188;-71
2021/12/09 09:40:16;;;;;;;12.83;7.13;;;;;;;;;;5070382;28;20205;-72
2021/12/09 09:45:08;;;;;;;13.37;8.07;;;;;;;;;;5067112;28;20836;-71
2021/12/09 09:47:34;;;;;;;15.87;7.73;;;;;;;;;;5052069;28;20197;-71
2021/12/09 09:49:59;;;;;;;13.63;8.13;;;;;;;;;;5052864;28;20207;-72
2021/12/09 09:52:25;;;;;;;13.60;7.83;;;;;;;;;;5077572;28;20181;-71
2021/12/09 09:54:51;;;;;;;9.97;7.93;;;;;;;;;;5068817;28;20188;-71
2021/12/09 09:57:16;;;;;;;13.33;7.07;;;;;;;;;;5064162;28;20234;-71
2021/12/09 09:59:42;;;;;;;13.73;7.83;;;;;;;;;;5076107;28;20216;-71
2021/12/09 10:02:08;;;;;;;12.93;8.10;;;;;;;;;;5055733;28;20181;-72
2021/12/09 10:04:44;;;;;;;15.63;7.10;;;;;;;;;;5072924;28;20176;-72
2021/12/09 10:07:09;;;;;;;16.17;8.13;;;;;;;;;;5053525;28;20674;-71
2021/12/09 10:09:34;;;;;;;13.93;8.50;;;;;;;;;;5071890;28;20191;-72
2021/12/09 10:12:01;;;;;;;15.60;10.43;;;;;;;;;;5075774;28;20196;-71
2021/12/09 10:14:27;;;;;;;20.37;10.17;;;;;;;;;;5075945;28;20253;-71
2021/12/09 10:17:01;;;;;;;15.20;9.77;;;;;;;;;;5077681;28;20184;-72
2021/12/09 10:19:26;;;;;;;17.70;10.20;;;;;;;;;;5070665;28;20208;-71
2021/12/09 10:22:02;;;;;;;22.37;11.03;;;;;;;;;;5076478;28;20556;-74
2021/12/09 10:24:30;;;;;;;20.57;11.00;;;;;;;;;;5072104;28;20184;-73
2021/12/09 10:26:55;;;;;;;24.40;12.10;;;;;;;;;;5072811;28;20713;-72
2021/12/09 10:29:44;;;;;;;19.87;11.93;;;;;;;;;;5069293;28;20431;-73
2021/12/09 10:32:13;;;;;;;23.57;13.17;;;;;;;;;;5076967;28;20333;-71
2021/12/09 10:34:40;;;;;;;20.17;12.60;;;;;;;;;;5069003;28;20642;-71
2021/12/09 10:37:08;;;;;;;20.40;12.57;;;;;;;;;;5071768;28;20189;-71
2021/12/09 10:39:52;;;;;;;21.03;13.97;;;;;;;;;;5069548;28;20193;-71
2021/12/09 10:42:17;;;;;;;27.10;13.67;;;;;;;;;;5067989;28;20184;-71
2021/12/09 10:44:47;;;;;;;24.38;13.10;;;;;;;;;;5073083;28;20553;-72
2021/12/09 10:47:21;;;;;;;50.27;14.90;;;;;;;;;;5079215;28;20700;-73
2021/12/09 10:49:52;;;;;;;22.40;12.53;;;;;;;;;;5067133;28;20739;-71
2021/12/09 10:52:22;;;;;;;21.33;13.27;;;;;;;;;;5068313;28;20188;-72
2021/12/09 10:54:47;;;;;;;23.37;12.47;;;;;;;;;;5074559;28;20177;-72
2021/12/09 10:57:25;;;;;;;25.03;13.40;;;;;;;;;;5067050;28;20176;-71
2021/12/09 10:59:51;;;;;;;24.13;13.77;;;;;;;;;;5070336;28;20196;-72
2021/12/09 11:02:17;;;;;;;21.87;13.13;;;;;;;;;;5056958;28;20252;-72
2021/12/09 11:04:56;;;;;;;20.40;14.00;;;;;;;;;;5068334;28;20276;-72
2021/12/09 11:07:29;;;;;;;22.43;14.13;;;;;;;;;;5071720;28;20303;-71
2021/12/09 11:10:12;;;;;;;23.07;13.70;;;;;;;;;;5075457;28;20254;-72
2021/12/09 11:12:37;;;;;;;25.03;14.67;;;;;;;;;;5074926;28;20178;-71
2021/12/09 11:15:03;;;;;;;20.90;13.40;;;;;;;;;;5070771;28;20183;-72
2021/12/09 11:17:35;;;;;;;24.47;14.17;;;;;;;;;;5077840;28;20662;-71
2021/12/09 11:20:02;;;;;;;17.83;12.90;;;;;;;;;;5078391;28;20589;-71
2021/12/09 11:22:32;;;;;;;27.60;14.77;;;;;;;;;;5071380;28;20188;-72
2021/12/09 11:25:02;;;;;;;19.13;13.23;;;;;;;;;;5071376;28;20180;-71
2021/12/09 11:27:29;;;;;;;21.73;12.17;;;;;;;;;;5068308;28;20205;-71
2021/12/09 11:30:06;;;;;;;16.80;13.20;;;;;;;;;;5067408;28;20258;-72
2021/12/09 11:32:40;;;;;;;20.50;13.37;;;;;;;;;;5067381;28;20321;-71
2021/12/09 11:35:12;;;;;;;15.23;11.60;;;;;;;;;;5053282;28;20187;-72
2021/12/09 11:37:43;;;;;;;16.27;12.43;;;;;;;;;;5070121;28;20245;-72
2021/12/09 11:40:20;;;;;;;25.73;14.03;;;;;;;;;;5073452;28;20204;-72
2021/12/09 11:42:52;;;;;;;18.83;13.17;;;;;;;;;;5063833;28;20190;-71
2021/12/09 11:45:20;;;;;;;18.73;12.70;;;;;;;;;;5069498;28;20260;-71
2021/12/09 11:47:46;;;;;;;21.20;13.40;;;;;;;;;;5063404;28;20201;-71
2021/12/09 11:50:13;;;;;;;19.83;15.07;;;;;;;;;;5066791;28;20205;-72
2021/12/09 11:52:39;;;;;;;19.17;13.77;;;;;;;;;;5064733;28;20200;-72
2021/12/09 11:55:06;;;;;;;23.63;13.53;;;;;;;;;;5069103;28;20179;-71
2021/12/09 12:06:51;;;;;;;18.67;13.73;;;;;;;;;;5077104;28;20214;-72
2021/12/09 12:12:25;;;;;;;22.20;14.37;;;;;;;;;;5068366;28;20304;-71
2021/12/09 12:14:54;;;;;;;19.80;14.53;;;;;;;;;;5068740;28;20184;-73
2021/12/09 12:17:30;;;;;;;19.47;14.30;;;;;;;;;;5072066;28;20646;-72
2021/12/09 12:25:38;;;;;;;17.70;12.97;;;;;;;;;;5073186;28;20192;-72
2021/12/09 12:28:40;;;;;;;19.37;14.30;;;;;;;;;;5073803;28;20216;-72
2021/12/09 12:31:26;;;;;;;22.93;15.20;;;;;;;;;;5072706;28;20263;-71
2021/12/09 12:34:55;;;;;;;24.60;14.63;;;;;;;;;;5065796;28;20191;-71
2021/12/09 12:42:43;;;;;;;24.03;14.30;;;;;;;;;;5078362;28;20183;-72
2021/12/09 12:45:40;;;;;;;21.07;14.20;;;;;;;;;;5068889;28;20181;-73
2021/12/09 12:48:30;;;;;;;26.40;15.67;;;;;;;;;;5069911;28;20204;-72
2021/12/09 12:51:18;;;;;;;23.50;15.60;;;;;;;;;;5072405;28;20184;-72
2021/12/09 12:53:47;;;;;;;21.63;15.37;;;;;;;;;;5070002;28;20191;-72
2021/12/09 12:56:15;;;;;;;22.10;15.93;;;;;;;;;;5064918;28;20185;-71
2021/12/09 12:59:01;;;;;;;25.30;15.97;;;;;;;;;;5068686;28;20207;-71
2021/12/09 13:01:26;;;;;;;25.13;15.47;;;;;;;;;;5070186;28;20185;-72
2021/12/09 13:03:55;;;;;;;24.87;16.93;;;;;;;;;;5070430;28;20191;-71
2021/12/09 13:06:45;;;;;;;22.53;15.57;;;;;;;;;;5073834;28;20196;-72
2021/12/09 13:09:27;;;;;;;25.57;16.57;;;;;;;;;;5072187;28;20197;-72
2021/12/09 13:11:59;;;;;;;26.63;16.93;;;;;;;;;;5064702;28;20181;-71
2021/12/09 13:14:29;;;;;;;29.73;17.93;;;;;;;;;;5067977;28;20177;-72
2021/12/09 13:19:33;;;;;;;23.87;16.60;;;;;;;;;;5065875;28;20266;-71
2021/12/09 13:22:01;;;;;;;30.23;16.93;;;;;;;;;;5069999;28;20594;-71
2021/12/09 13:24:35;;;;;;;25.83;17.27;;;;;;;;;;5060994;28;20191;-72
2021/12/09 13:46:42;;;;;;;26.07;16.90;;;;;;;;;;5069352;28;20577;-72
2021/12/09 13:54:26;;;;;;;30.37;19.23;;;;;;;;;;5068690;28;20226;-71
2021/12/09 13:57:04;;;;;;;29.67;17.87;;;;;;;;;;5047309;28;20562;-71
2021/12/09 13:59:31;;;;;;;28.93;18.10;;;;;;;;;;5049623;28;20192;-72
2021/12/09 14:01:57;;;;;;;26.40;18.40;;;;;;;;;;5065815;28;20185;-71
2021/12/09 14:04:24;;;;;;;27.87;17.87;;;;;;;;;;5059716;28;20189;-72
2021/12/09 14:07:43;;;;;;;27.60;18.13;;;;;;;;;;5067646;28;20239;-71
2021/12/09 14:09:55;;;;;;;27.80;18.87;;;;;;;;;;5060287;28;20215;-72
2021/12/09 14:12:20;;;;;;;30.13;19.53;;;;;;;;;;5061934;28;20259;-72
2021/12/09 14:15:07;;;;;;;35.83;20.70;;;;;;;;;;5058895;28;20613;-71
2021/12/09 14:17:33;;;;;;;28.93;18.17;;;;;;;;;;5060987;28;20203;-71
2021/12/09 14:19:59;;;;;;;25.50;17.20;;;;;;;;;;5068168;28;20683;-71
2021/12/09 14:22:32;;;;;;;26.10;18.27;;;;;;;;;;5066282;28;20207;-72
2021/12/09 14:25:01;;;;;;;30.63;18.00;;;;;;;;;;5067416;28;20180;-71
2021/12/09 14:27:26;;;;;;;24.90;18.33;;;;;;;;;;5064645;28;20253;-72
2021/12/09 14:29:52;;;;;;;27.37;19.50;;;;;;;;;;5080058;22;20225;-76
2021/12/09 14:32:18;;;;;;;28.20;17.90;;;;;;;;;;5068838;28;20201;-76
2021/12/09 14:34:46;;;;;;;27.80;17.50;;;;;;;;;;5072544;28;20236;-76
2021/12/09 14:37:12;;;;;;;28.30;17.73;;;;;;;;;;5062467;28;20247;-75
2021/12/09 14:39:38;;;;;;;29.80;19.03;;;;;;;;;;5064793;28;20213;-76
2021/12/09 14:42:05;;;;;;;22.83;17.87;;;;;;;;;;5054995;28;20182;-75
2021/12/09 14:44:30;;;;;;;32.43;17.43;;;;;;;;;;5037851;28;20197;-76
2021/12/09 14:47:04;;;;;;;26.90;17.33;;;;;;;;;;5052509;28;20202;-75
2021/12/09 14:49:29;;;;;;;30.27;18.13;;;;;;;;;;5037473;28;21770;-75
2021/12/09 14:51:55;;;;;;;27.40;17.27;;;;;;;;;;5038418;28;20217;-75
2021/12/09 14:54:25;;;;;;;32.10;19.13;;;;;;;;;;5061100;28;20180;-75
2021/12/09 14:56:54;;;;;;;29.57;17.73;;;;;;;;;;5056770;28;20189;-76
2021/12/09 14:59:22;;;;;;;27.33;16.80;;;;;;;;;;5056400;28;20202;-77
2021/12/09 15:01:52;;;;;;;35.83;20.23;;;;;;;;;;5062434;28;20208;-75
2021/12/09 15:04:34;;;;;;;30.17;17.60;;;;;;;;;;5060783;28;20647;-77
2021/12/09 15:07:00;;;;;;;26.93;16.93;;;;;;;;;;5064626;28;20674;-74
2021/12/09 15:09:25;;;;;;;40.87;18.33;;;;;;;;;;5057956;28;20201;-74
2021/12/09 15:11:52;;;;;;;29.63;17.43;;;;;;;;;;5044711;28;20184;-77
2021/12/09 15:14:19;;;;;;;28.97;15.97;;;;;;;;;;5050077;28;20205;-76
2021/12/09 15:16:47;;;;;;;34.60;16.83;;;;;;;;;;5045854;28;20272;-76
2021/12/09 15:19:19;;;;;;;26.13;16.57;;;;;;;;;;5061381;28;20263;-76
2021/12/09 15:21:59;;;;;;;28.57;17.53;;;;;;;;;;5049000;28;20192;-76
2021/12/09 15:24:25;;;;;;;28.57;17.17;;;;;;;;;;5054189;28;20186;-75
2021/12/09 15:26:51;;;;;;;27.73;16.63;;;;;;;;;;5045498;28;20267;-75